sensor_id;sensor_type;location;lat;lon;timestamp;P1;durP1;ratioP1;P2;durP2;ratioP2
64907;SDS011;64365;-1.756;110.040;2023-02-10T00:01:01;28.17;;;17.13;;
64907;SDS011;64365;-1.756;110.040;2023-02-10T00:03:28;29.88;;;15.48;;
64907;SDS011;64365;-1.756;110.040;2023-02-10T00:05:56;26.65;;;16.08;;
64907;SDS011;64365;-1.756;110.040;2023-02-10T00:08:23;24.83;;;13.70;;
64907;SDS011;64365;-1.756;110.040;2023-02-10T00:10:50;29.08;;;13.70;;
64907;SDS011;64365;-1.756;110.040;2023-02-10T00:13:16;25.95;;;13.25;;
64907;SDS011;64365;-1.756;110.040;2023-02-10T00:15:43;24.13;;;13.60;;
64907;SDS011;64365;-1.756;110.040;2023-02-10T00:18:09;25.80;;;14.02;;
64907;SDS011;64365;-1.756;110.040;2023-02-10T00:20:36;23.60;;;13.40;;
64907;SDS011;64365;-1.756;110.040;2023-02-10T00:23:04;23.25;;;13.30;;
64907;SDS011;64365;-1.756;110.040;2023-02-10T00:25:32;28.65;;;13.57;;
64907;SDS011;64365;-1.756;110.040;2023-02-10T00:27:59;23.02;;;13.35;;
64907;SDS011;64365;-1.756;110.040;2023-02-10T00:30:25;24.10;;;12.65;;
64907;SDS011;64365;-1.756;110.040;2023-02-10T00:32:52;24.50;;;13.82;;
64907;SDS011;64365;-1.756;110.040;2023-02-10T00:35:18;26.30;;;13.80;;
64907;SDS011;64365;-1.756;110.040;2023-02-10T00:37:45;23.95;;;13.40;;
64907;SDS011;64365;-1.756;110.040;2023-02-10T00:40:14;22.58;;;13.18;;
64907;SDS011;64365;-1.756;110.040;2023-02-10T00:42:41;21.58;;;11.65;;
64907;SDS011;64365;-1.756;110.040;2023-02-10T00:45:07;25.05;;;12.80;;
64907;SDS011;64365;-1.756;110.040;2023-02-10T00:47:35;27.77;;;13.27;;
64907;SDS011;64365;-1.756;110.040;2023-02-10T00:50:02;26.48;;;14.50;;
64907;SDS011;64365;-1.756;110.040;2023-02-10T00:52:28;25.27;;;15.05;;
64907;SDS011;64365;-1.756;110.040;2023-02-10T00:54:55;23.40;;;13.07;;
64907;SDS011;64365;-1.756;110.040;2023-02-10T00:57:23;27.63;;;14.10;;
64907;SDS011;64365;-1.756;110.040;2023-02-10T00:59:49;25.35;;;12.70;;
64907;SDS011;64365;-1.756;110.040;2023-02-10T01:02:16;32.10;;;13.13;;
64907;SDS011;64365;-1.756;110.040;2023-02-10T01:04:43;28.17;;;13.48;;
64907;SDS011;64365;-1.756;110.040;2023-02-10T01:07:09;32.80;;;12.93;;
64907;SDS011;64365;-1.756;110.040;2023-02-10T01:09:36;25.15;;;12.95;;
64907;SDS011;64365;-1.756;110.040;2023-02-10T01:12:03;25.52;;;12.27;;
64907;SDS011;64365;-1.756;110.040;2023-02-10T01:14:31;26.40;;;13.05;;
64907;SDS011;64365;-1.756;110.040;2023-02-10T01:16:58;23.50;;;13.18;;
64907;SDS011;64365;-1.756;110.040;2023-02-10T01:19:25;22.08;;;13.68;;
64907;SDS011;64365;-1.756;110.040;2023-02-10T01:21:51;28.55;;;12.65;;
64907;SDS011;64365;-1.756;110.040;2023-02-10T01:24:18;25.20;;;11.65;;
64907;SDS011;64365;-1.756;110.040;2023-02-10T01:26:45;23.40;;;12.02;;
64907;SDS011;64365;-1.756;110.040;2023-02-10T01:29:11;29.17;;;12.40;;
64907;SDS011;64365;-1.756;110.040;2023-02-10T01:31:39;21.73;;;11.55;;
64907;SDS011;64365;-1.756;110.040;2023-02-10T01:34:06;17.98;;;11.18;;
64907;SDS011;64365;-1.756;110.040;2023-02-10T01:36:32;20.63;;;12.10;;
64907;SDS011;64365;-1.756;110.040;2023-02-10T01:38:59;25.80;;;12.38;;
64907;SDS011;64365;-1.756;110.040;2023-02-10T01:41:26;20.75;;;11.65;;
64907;SDS011;64365;-1.756;110.040;2023-02-10T01:43:54;22.77;;;12.25;;
64907;SDS011;64365;-1.756;110.040;2023-02-10T01:46:22;20.67;;;12.45;;
64907;SDS011;64365;-1.756;110.040;2023-02-10T01:48:51;20.45;;;12.52;;
64907;SDS011;64365;-1.756;110.040;2023-02-10T01:51:19;21.85;;;12.15;;
64907;SDS011;64365;-1.756;110.040;2023-02-10T01:53:51;23.00;;;11.98;;
64907;SDS011;64365;-1.756;110.040;2023-02-10T01:56:18;24.98;;;11.82;;
64907;SDS011;64365;-1.756;110.040;2023-02-10T01:58:45;18.88;;;12.05;;
64907;SDS011;64365;-1.756;110.040;2023-02-10T02:01:12;23.25;;;12.57;;
64907;SDS011;64365;-1.756;110.040;2023-02-10T02:03:40;17.50;;;10.63;;
64907;SDS011;64365;-1.756;110.040;2023-02-10T02:06:08;19.65;;;12.23;;
64907;SDS011;64365;-1.756;110.040;2023-02-10T02:08:35;20.00;;;11.27;;
64907;SDS011;64365;-1.756;110.040;2023-02-10T02:11:07;21.27;;;11.05;;
64907;SDS011;64365;-1.756;110.040;2023-02-10T02:13:47;25.55;;;12.70;;
64907;SDS011;64365;-1.756;110.040;2023-02-10T02:16:38;21.17;;;11.68;;
64907;SDS011;64365;-1.756;110.040;2023-02-10T02:19:17;28.77;;;12.57;;
64907;SDS011;64365;-1.756;110.040;2023-02-10T02:22:16;19.23;;;10.25;;
64907;SDS011;64365;-1.756;110.040;2023-02-10T02:25:04;23.20;;;11.00;;
64907;SDS011;64365;-1.756;110.040;2023-02-10T02:27:51;23.05;;;11.93;;
64907;SDS011;64365;-1.756;110.040;2023-02-10T02:30:46;19.73;;;11.38;;
64907;SDS011;64365;-1.756;110.040;2023-02-10T02:33:37;17.80;;;10.82;;
64907;SDS011;64365;-1.756;110.040;2023-02-10T02:36:10;23.92;;;11.00;;
64907;SDS011;64365;-1.756;110.040;2023-02-10T02:38:39;23.58;;;11.27;;
64907;SDS011;64365;-1.756;110.040;2023-02-10T02:41:06;18.30;;;10.30;;
64907;SDS011;64365;-1.756;110.040;2023-02-10T02:43:33;18.13;;;9.73;;
64907;SDS011;64365;-1.756;110.040;2023-02-10T02:46:02;18.73;;;10.32;;
64907;SDS011;64365;-1.756;110.040;2023-02-10T02:48:54;19.38;;;9.93;;
64907;SDS011;64365;-1.756;110.040;2023-02-10T02:51:30;19.38;;;10.60;;
64907;SDS011;64365;-1.756;110.040;2023-02-10T02:54:08;19.98;;;9.80;;
64907;SDS011;64365;-1.756;110.040;2023-02-10T02:56:45;16.42;;;10.63;;
64907;SDS011;64365;-1.756;110.040;2023-02-10T02:59:17;17.83;;;10.50;;
64907;SDS011;64365;-1.756;110.040;2023-02-10T03:01:47;18.23;;;10.15;;
64907;SDS011;64365;-1.756;110.040;2023-02-10T03:04:20;21.63;;;10.68;;
64907;SDS011;64365;-1.756;110.040;2023-02-10T03:06:48;19.27;;;10.35;;
64907;SDS011;64365;-1.756;110.040;2023-02-10T03:09:14;19.73;;;11.07;;
64907;SDS011;64365;-1.756;110.040;2023-02-10T03:11:41;18.08;;;10.07;;
64907;SDS011;64365;-1.756;110.040;2023-02-10T03:14:08;19.20;;;9.70;;
64907;SDS011;64365;-1.756;110.040;2023-02-10T03:16:34;24.80;;;11.02;;
64907;SDS011;64365;-1.756;110.040;2023-02-10T03:19:01;24.27;;;11.85;;
64907;SDS011;64365;-1.756;110.040;2023-02-10T03:21:29;21.90;;;10.93;;
64907;SDS011;64365;-1.756;110.040;2023-02-10T03:23:55;23.00;;;12.10;;
64907;SDS011;64365;-1.756;110.040;2023-02-10T03:26:22;23.42;;;12.02;;
64907;SDS011;64365;-1.756;110.040;2023-02-10T03:28:49;18.80;;;11.63;;
64907;SDS011;64365;-1.756;110.040;2023-02-10T03:31:15;21.63;;;13.55;;
64907;SDS011;64365;-1.756;110.040;2023-02-10T03:33:42;19.80;;;12.00;;
64907;SDS011;64365;-1.756;110.040;2023-02-10T03:36:09;26.73;;;13.35;;
64907;SDS011;64365;-1.756;110.040;2023-02-10T03:38:36;22.48;;;12.40;;
64907;SDS011;64365;-1.756;110.040;2023-02-10T03:41:03;20.98;;;12.25;;
64907;SDS011;64365;-1.756;110.040;2023-02-10T03:43:30;25.23;;;12.80;;
64907;SDS011;64365;-1.756;110.040;2023-02-10T03:45:58;25.77;;;12.77;;
64907;SDS011;64365;-1.756;110.040;2023-02-10T03:48:25;25.88;;;13.80;;
64907;SDS011;64365;-1.756;110.040;2023-02-10T03:50:56;24.27;;;13.20;;
64907;SDS011;64365;-1.756;110.040;2023-02-10T03:53:22;24.73;;;13.77;;
64907;SDS011;64365;-1.756;110.040;2023-02-10T03:55:50;28.05;;;12.77;;
64907;SDS011;64365;-1.756;110.040;2023-02-10T03:58:17;31.27;;;15.05;;
64907;SDS011;64365;-1.756;110.040;2023-02-10T04:00:44;23.80;;;13.70;;
64907;SDS011;64365;-1.756;110.040;2023-02-10T04:03:10;23.13;;;13.07;;
64907;SDS011;64365;-1.756;110.040;2023-02-10T04:05:37;31.65;;;15.85;;
64907;SDS011;64365;-1.756;110.040;2023-02-10T04:08:03;27.73;;;15.52;;
64907;SDS011;64365;-1.756;110.040;2023-02-10T04:10:30;27.83;;;15.90;;
64907;SDS011;64365;-1.756;110.040;2023-02-10T04:12:59;25.20;;;13.73;;
64907;SDS011;64365;-1.756;110.040;2023-02-10T04:15:25;31.67;;;16.67;;
64907;SDS011;64365;-1.756;110.040;2023-02-10T04:17:52;26.92;;;14.88;;
64907;SDS011;64365;-1.756;110.040;2023-02-10T04:20:18;29.65;;;14.75;;
64907;SDS011;64365;-1.756;110.040;2023-02-10T04:22:45;31.83;;;16.45;;
64907;SDS011;64365;-1.756;110.040;2023-02-10T04:25:12;34.17;;;17.48;;
64907;SDS011;64365;-1.756;110.040;2023-02-10T04:27:38;33.17;;;17.02;;
64907;SDS011;64365;-1.756;110.040;2023-02-10T04:30:07;31.05;;;16.20;;
64907;SDS011;64365;-1.756;110.040;2023-02-10T04:32:35;32.20;;;17.00;;
64907;SDS011;64365;-1.756;110.040;2023-02-10T04:35:02;29.13;;;16.02;;
64907;SDS011;64365;-1.756;110.040;2023-02-10T04:37:28;31.90;;;15.60;;
64907;SDS011;64365;-1.756;110.040;2023-02-10T04:39:55;28.70;;;15.55;;
64907;SDS011;64365;-1.756;110.040;2023-02-10T04:42:21;28.55;;;16.25;;
64907;SDS011;64365;-1.756;110.040;2023-02-10T04:44:54;29.55;;;17.15;;
64907;SDS011;64365;-1.756;110.040;2023-02-10T04:47:22;31.05;;;17.30;;
64907;SDS011;64365;-1.756;110.040;2023-02-10T04:49:49;34.65;;;19.65;;
64907;SDS011;64365;-1.756;110.040;2023-02-10T04:52:16;33.80;;;16.73;;
64907;SDS011;64365;-1.756;110.040;2023-02-10T04:54:42;31.85;;;16.67;;
64907;SDS011;64365;-1.756;110.040;2023-02-10T04:57:09;36.13;;;19.17;;
64907;SDS011;64365;-1.756;110.040;2023-02-10T04:59:36;42.35;;;17.58;;
64907;SDS011;64365;-1.756;110.040;2023-02-10T05:02:02;45.72;;;18.65;;
64907;SDS011;64365;-1.756;110.040;2023-02-10T05:04:30;37.05;;;18.40;;
64907;SDS011;64365;-1.756;110.040;2023-02-10T05:07:00;37.95;;;17.27;;
64907;SDS011;64365;-1.756;110.040;2023-02-10T05:09:27;36.97;;;18.83;;
64907;SDS011;64365;-1.756;110.040;2023-02-10T05:11:53;32.97;;;17.70;;
64907;SDS011;64365;-1.756;110.040;2023-02-10T05:14:20;36.13;;;17.60;;
64907;SDS011;64365;-1.756;110.040;2023-02-10T05:16:46;34.33;;;19.08;;
64907;SDS011;64365;-1.756;110.040;2023-02-10T05:19:13;35.30;;;19.35;;
64907;SDS011;64365;-1.756;110.040;2023-02-10T05:21:41;34.80;;;17.27;;
64907;SDS011;64365;-1.756;110.040;2023-02-10T05:24:07;35.85;;;18.40;;
64907;SDS011;64365;-1.756;110.040;2023-02-10T05:26:34;33.80;;;18.02;;
64907;SDS011;64365;-1.756;110.040;2023-02-10T05:29:01;34.72;;;17.50;;
64907;SDS011;64365;-1.756;110.040;2023-02-10T05:31:27;43.78;;;21.15;;
64907;SDS011;64365;-1.756;110.040;2023-02-10T05:33:54;38.50;;;19.52;;
64907;SDS011;64365;-1.756;110.040;2023-02-10T05:36:20;34.95;;;18.90;;
64907;SDS011;64365;-1.756;110.040;2023-02-10T05:38:48;40.22;;;20.60;;
64907;SDS011;64365;-1.756;110.040;2023-02-10T05:41:29;33.75;;;18.90;;
64907;SDS011;64365;-1.756;110.040;2023-02-10T05:43:55;32.35;;;18.67;;
64907;SDS011;64365;-1.756;110.040;2023-02-10T05:46:22;34.42;;;17.98;;
64907;SDS011;64365;-1.756;110.040;2023-02-10T05:48:49;35.25;;;18.38;;
64907;SDS011;64365;-1.756;110.040;2023-02-10T05:51:16;39.20;;;20.38;;
64907;SDS011;64365;-1.756;110.040;2023-02-10T05:53:42;39.40;;;21.73;;
64907;SDS011;64365;-1.756;110.040;2023-02-10T05:56:10;43.22;;;21.63;;
64907;SDS011;64365;-1.756;110.040;2023-02-10T05:58:37;41.78;;;22.05;;
64907;SDS011;64365;-1.756;110.040;2023-02-10T06:01:05;40.88;;;22.33;;
64907;SDS011;64365;-1.756;110.040;2023-02-10T06:03:32;37.20;;;19.27;;
64907;SDS011;64365;-1.756;110.040;2023-02-10T06:05:59;38.97;;;19.00;;
64907;SDS011;64365;-1.756;110.040;2023-02-10T06:08:25;31.98;;;17.55;;
64907;SDS011;64365;-1.756;110.040;2023-02-10T06:10:52;40.00;;;20.52;;
64907;SDS011;64365;-1.756;110.040;2023-02-10T06:13:20;40.75;;;20.83;;
64907;SDS011;64365;-1.756;110.040;2023-02-10T06:15:47;43.67;;;20.98;;
64907;SDS011;64365;-1.756;110.040;2023-02-10T06:18:14;49.92;;;24.17;;
64907;SDS011;64365;-1.756;110.040;2023-02-10T06:20:40;33.53;;;19.25;;
64907;SDS011;64365;-1.756;110.040;2023-02-10T06:23:07;38.35;;;20.77;;
64907;SDS011;64365;-1.756;110.040;2023-02-10T06:25:34;43.28;;;21.95;;
64907;SDS011;64365;-1.756;110.040;2023-02-10T06:28:01;36.60;;;20.08;;
64907;SDS011;64365;-1.756;110.040;2023-02-10T06:30:29;37.60;;;20.58;;
64907;SDS011;64365;-1.756;110.040;2023-02-10T06:32:56;61.60;;;24.45;;
64907;SDS011;64365;-1.756;110.040;2023-02-10T06:35:22;43.72;;;23.63;;
64907;SDS011;64365;-1.756;110.040;2023-02-10T06:37:50;38.97;;;19.85;;
64907;SDS011;64365;-1.756;110.040;2023-02-10T06:40:17;35.63;;;19.88;;
64907;SDS011;64365;-1.756;110.040;2023-02-10T06:42:44;43.38;;;22.33;;
64907;SDS011;64365;-1.756;110.040;2023-02-10T06:45:10;44.33;;;23.33;;
64907;SDS011;64365;-1.756;110.040;2023-02-10T06:47:38;43.83;;;24.73;;
64907;SDS011;64365;-1.756;110.040;2023-02-10T06:50:05;38.05;;;21.45;;
64907;SDS011;64365;-1.756;110.040;2023-02-10T06:52:33;34.15;;;18.90;;
64907;SDS011;64365;-1.756;110.040;2023-02-10T06:55:02;34.72;;;19.55;;
64907;SDS011;64365;-1.756;110.040;2023-02-10T06:57:29;34.05;;;18.17;;
64907;SDS011;64365;-1.756;110.040;2023-02-10T06:59:56;39.65;;;21.38;;
64907;SDS011;64365;-1.756;110.040;2023-02-10T07:02:23;37.95;;;19.98;;
64907;SDS011;64365;-1.756;110.040;2023-02-10T07:04:52;36.50;;;20.35;;
64907;SDS011;64365;-1.756;110.040;2023-02-10T07:07:18;36.88;;;19.65;;
64907;SDS011;64365;-1.756;110.040;2023-02-10T07:09:45;33.08;;;18.65;;
64907;SDS011;64365;-1.756;110.040;2023-02-10T07:12:11;39.97;;;18.67;;
64907;SDS011;64365;-1.756;110.040;2023-02-10T07:14:38;33.42;;;18.05;;
64907;SDS011;64365;-1.756;110.040;2023-02-10T07:17:04;32.55;;;19.90;;
64907;SDS011;64365;-1.756;110.040;2023-02-10T07:19:31;30.45;;;17.27;;
64907;SDS011;64365;-1.756;110.040;2023-02-10T07:22:00;32.67;;;17.70;;
64907;SDS011;64365;-1.756;110.040;2023-02-10T07:24:30;32.50;;;17.75;;
64907;SDS011;64365;-1.756;110.040;2023-02-10T07:26:56;33.58;;;18.42;;
64907;SDS011;64365;-1.756;110.040;2023-02-10T07:29:23;35.90;;;18.80;;
64907;SDS011;64365;-1.756;110.040;2023-02-10T07:31:49;33.03;;;17.20;;
64907;SDS011;64365;-1.756;110.040;2023-02-10T07:34:16;29.88;;;17.67;;
64907;SDS011;64365;-1.756;110.040;2023-02-10T07:36:44;29.58;;;17.70;;
64907;SDS011;64365;-1.756;110.040;2023-02-10T07:39:12;30.98;;;16.90;;
64907;SDS011;64365;-1.756;110.040;2023-02-10T07:41:39;32.53;;;16.77;;
64907;SDS011;64365;-1.756;110.040;2023-02-10T07:44:05;33.92;;;18.98;;
64907;SDS011;64365;-1.756;110.040;2023-02-10T07:46:32;25.52;;;16.35;;
64907;SDS011;64365;-1.756;110.040;2023-02-10T07:48:58;29.65;;;15.82;;
64907;SDS011;64365;-1.756;110.040;2023-02-10T07:51:25;29.48;;;17.10;;
64907;SDS011;64365;-1.756;110.040;2023-02-10T07:53:52;27.95;;;15.48;;
64907;SDS011;64365;-1.756;110.040;2023-02-10T07:56:20;26.30;;;14.75;;
64907;SDS011;64365;-1.756;110.040;2023-02-10T07:58:46;26.27;;;15.10;;
64907;SDS011;64365;-1.756;110.040;2023-02-10T08:01:13;22.95;;;13.60;;
64907;SDS011;64365;-1.756;110.040;2023-02-10T08:03:40;24.75;;;14.82;;
64907;SDS011;64365;-1.756;110.040;2023-02-10T08:06:06;26.45;;;15.65;;
64907;SDS011;64365;-1.756;110.040;2023-02-10T08:08:33;31.63;;;15.93;;
64907;SDS011;64365;-1.756;110.040;2023-02-10T08:11:02;26.85;;;16.30;;
64907;SDS011;64365;-1.756;110.040;2023-02-10T08:13:31;25.25;;;14.70;;
64907;SDS011;64365;-1.756;110.040;2023-02-10T08:15:58;23.27;;;14.85;;
64907;SDS011;64365;-1.756;110.040;2023-02-10T08:18:24;25.67;;;15.40;;
64907;SDS011;64365;-1.756;110.040;2023-02-10T08:20:51;24.92;;;14.13;;
64907;SDS011;64365;-1.756;110.040;2023-02-10T08:23:17;28.13;;;14.07;;
64907;SDS011;64365;-1.756;110.040;2023-02-10T08:25:44;25.20;;;15.10;;
64907;SDS011;64365;-1.756;110.040;2023-02-10T08:28:10;22.48;;;14.45;;
64907;SDS011;64365;-1.756;110.040;2023-02-10T08:30:38;21.00;;;13.70;;
64907;SDS011;64365;-1.756;110.040;2023-02-10T08:33:05;25.33;;;15.93;;
64907;SDS011;64365;-1.756;110.040;2023-02-10T08:35:32;24.50;;;14.73;;
64907;SDS011;64365;-1.756;110.040;2023-02-10T08:38:01;27.38;;;16.08;;
64907;SDS011;64365;-1.756;110.040;2023-02-10T08:40:27;26.05;;;15.93;;
64907;SDS011;64365;-1.756;110.040;2023-02-10T08:42:54;27.25;;;14.82;;
64907;SDS011;64365;-1.756;110.040;2023-02-10T08:45:20;22.48;;;15.57;;
64907;SDS011;64365;-1.756;110.040;2023-02-10T08:47:48;25.00;;;14.75;;
64907;SDS011;64365;-1.756;110.040;2023-02-10T08:50:15;30.45;;;16.77;;
64907;SDS011;64365;-1.756;110.040;2023-02-10T08:52:41;22.33;;;14.60;;
64907;SDS011;64365;-1.756;110.040;2023-02-10T08:55:08;28.52;;;15.43;;
64907;SDS011;64365;-1.756;110.040;2023-02-10T08:57:36;27.23;;;14.88;;
64907;SDS011;64365;-1.756;110.040;2023-02-10T09:00:03;22.05;;;14.50;;
64907;SDS011;64365;-1.756;110.040;2023-02-10T09:02:31;27.60;;;15.85;;
64907;SDS011;64365;-1.756;110.040;2023-02-10T09:04:59;25.00;;;15.13;;
64907;SDS011;64365;-1.756;110.040;2023-02-10T09:07:25;23.25;;;14.50;;
64907;SDS011;64365;-1.756;110.040;2023-02-10T09:09:52;25.05;;;15.85;;
64907;SDS011;64365;-1.756;110.040;2023-02-10T09:12:19;23.70;;;15.38;;
64907;SDS011;64365;-1.756;110.040;2023-02-10T09:14:45;20.73;;;14.98;;
64907;SDS011;64365;-1.756;110.040;2023-02-10T09:17:12;23.05;;;14.57;;
64907;SDS011;64365;-1.756;110.040;2023-02-10T09:19:38;28.25;;;15.27;;
64907;SDS011;64365;-1.756;110.040;2023-02-10T09:22:07;22.67;;;14.40;;
64907;SDS011;64365;-1.756;110.040;2023-02-10T09:24:34;28.00;;;15.50;;
64907;SDS011;64365;-1.756;110.040;2023-02-10T09:27:01;21.08;;;13.52;;
64907;SDS011;64365;-1.756;110.040;2023-02-10T09:29:27;23.92;;;15.50;;
64907;SDS011;64365;-1.756;110.040;2023-02-10T09:31:54;24.33;;;14.90;;
64907;SDS011;64365;-1.756;110.040;2023-02-10T09:34:22;26.85;;;16.83;;
64907;SDS011;64365;-1.756;110.040;2023-02-10T09:36:48;25.05;;;16.02;;
64907;SDS011;64365;-1.756;110.040;2023-02-10T09:39:16;20.85;;;14.70;;
64907;SDS011;64365;-1.756;110.040;2023-02-10T09:41:48;25.67;;;16.70;;
64907;SDS011;64365;-1.756;110.040;2023-02-10T09:44:22;25.50;;;15.50;;
64907;SDS011;64365;-1.756;110.040;2023-02-10T09:46:58;30.13;;;16.23;;
64907;SDS011;64365;-1.756;110.040;2023-02-10T09:49:47;22.27;;;15.40;;
64907;SDS011;64365;-1.756;110.040;2023-02-10T09:52:22;25.83;;;15.95;;
64907;SDS011;64365;-1.756;110.040;2023-02-10T09:54:59;22.55;;;15.30;;
64907;SDS011;64365;-1.756;110.040;2023-02-10T09:57:29;27.35;;;15.63;;
64907;SDS011;64365;-1.756;110.040;2023-02-10T10:00:02;25.30;;;16.70;;
64907;SDS011;64365;-1.756;110.040;2023-02-10T10:02:32;29.52;;;17.35;;
64907;SDS011;64365;-1.756;110.040;2023-02-10T10:05:04;26.92;;;15.57;;
64907;SDS011;64365;-1.756;110.040;2023-02-10T10:07:45;26.50;;;15.73;;
64907;SDS011;64365;-1.756;110.040;2023-02-10T10:10:20;24.17;;;15.00;;
64907;SDS011;64365;-1.756;110.040;2023-02-10T10:12:50;27.45;;;15.32;;
64907;SDS011;64365;-1.756;110.040;2023-02-10T10:15:17;30.10;;;16.42;;
64907;SDS011;64365;-1.756;110.040;2023-02-10T10:17:48;29.40;;;16.17;;
64907;SDS011;64365;-1.756;110.040;2023-02-10T10:20:36;27.40;;;15.23;;
64907;SDS011;64365;-1.756;110.040;2023-02-10T10:23:26;26.73;;;14.95;;
64907;SDS011;64365;-1.756;110.040;2023-02-10T10:26:02;22.52;;;14.70;;
64907;SDS011;64365;-1.756;110.040;2023-02-10T10:28:50;25.00;;;14.80;;
64907;SDS011;64365;-1.756;110.040;2023-02-10T10:31:28;26.15;;;15.90;;
64907;SDS011;64365;-1.756;110.040;2023-02-10T10:33:56;26.15;;;15.05;;
64907;SDS011;64365;-1.756;110.040;2023-02-10T10:36:29;27.75;;;14.73;;
64907;SDS011;64365;-1.756;110.040;2023-02-10T10:39:00;22.52;;;13.57;;
64907;SDS011;64365;-1.756;110.040;2023-02-10T10:41:31;24.77;;;15.43;;
64907;SDS011;64365;-1.756;110.040;2023-02-10T10:44:01;25.70;;;14.68;;
64907;SDS011;64365;-1.756;110.040;2023-02-10T10:46:30;26.33;;;14.77;;
64907;SDS011;64365;-1.756;110.040;2023-02-10T10:49:02;26.55;;;15.30;;
64907;SDS011;64365;-1.756;110.040;2023-02-10T10:51:28;26.30;;;15.45;;
64907;SDS011;64365;-1.756;110.040;2023-02-10T10:53:56;34.30;;;16.50;;
64907;SDS011;64365;-1.756;110.040;2023-02-10T10:56:27;25.58;;;15.48;;
64907;SDS011;64365;-1.756;110.040;2023-02-10T10:59:01;29.55;;;14.85;;
64907;SDS011;64365;-1.756;110.040;2023-02-10T11:01:36;27.45;;;14.13;;
64907;SDS011;64365;-1.756;110.040;2023-02-10T11:04:05;23.33;;;14.80;;
64907;SDS011;64365;-1.756;110.040;2023-02-10T11:06:33;21.08;;;13.73;;
64907;SDS011;64365;-1.756;110.040;2023-02-10T11:09:03;23.92;;;13.73;;
64907;SDS011;64365;-1.756;110.040;2023-02-10T11:11:32;25.98;;;14.52;;
64907;SDS011;64365;-1.756;110.040;2023-02-10T11:14:01;24.25;;;14.30;;
64907;SDS011;64365;-1.756;110.040;2023-02-10T11:16:29;27.05;;;13.80;;
64907;SDS011;64365;-1.756;110.040;2023-02-10T11:18:56;20.90;;;12.15;;
64907;SDS011;64365;-1.756;110.040;2023-02-10T11:21:32;24.95;;;12.73;;
64907;SDS011;64365;-1.756;110.040;2023-02-10T11:24:00;22.98;;;12.18;;
64907;SDS011;64365;-1.756;110.040;2023-02-10T11:26:28;23.75;;;12.50;;
64907;SDS011;64365;-1.756;110.040;2023-02-10T11:28:54;25.20;;;13.20;;
64907;SDS011;64365;-1.756;110.040;2023-02-10T11:31:24;22.67;;;13.00;;
64907;SDS011;64365;-1.756;110.040;2023-02-10T11:33:57;24.90;;;13.27;;
64907;SDS011;64365;-1.756;110.040;2023-02-10T11:36:30;23.58;;;13.43;;
64907;SDS011;64365;-1.756;110.040;2023-02-10T11:39:02;22.35;;;13.45;;
64907;SDS011;64365;-1.756;110.040;2023-02-10T11:41:30;20.77;;;12.80;;
64907;SDS011;64365;-1.756;110.040;2023-02-10T11:43:59;23.08;;;13.25;;
64907;SDS011;64365;-1.756;110.040;2023-02-10T11:46:28;27.17;;;13.73;;
64907;SDS011;64365;-1.756;110.040;2023-02-10T11:48:57;24.88;;;12.38;;
64907;SDS011;64365;-1.756;110.040;2023-02-10T11:51:25;22.30;;;12.90;;
64907;SDS011;64365;-1.756;110.040;2023-02-10T11:53:52;25.42;;;12.77;;
64907;SDS011;64365;-1.756;110.040;2023-02-10T11:56:21;32.67;;;13.15;;
64907;SDS011;64365;-1.756;110.040;2023-02-10T11:59:13;21.60;;;13.60;;
64907;SDS011;64365;-1.756;110.040;2023-02-10T12:01:49;24.30;;;12.82;;
64907;SDS011;64365;-1.756;110.040;2023-02-10T12:04:30;26.85;;;13.68;;
64907;SDS011;64365;-1.756;110.040;2023-02-10T12:07:11;26.35;;;13.00;;
64907;SDS011;64365;-1.756;110.040;2023-02-10T12:09:48;19.85;;;11.82;;
64907;SDS011;64365;-1.756;110.040;2023-02-10T12:12:22;20.67;;;11.73;;
64907;SDS011;64365;-1.756;110.040;2023-02-10T12:15:00;19.25;;;11.98;;
64907;SDS011;64365;-1.756;110.040;2023-02-10T12:17:37;22.75;;;11.65;;
64907;SDS011;64365;-1.756;110.040;2023-02-10T12:20:17;26.05;;;12.68;;
64907;SDS011;64365;-1.756;110.040;2023-02-10T12:22:58;25.88;;;13.27;;
64907;SDS011;64365;-1.756;110.040;2023-02-10T12:25:36;31.10;;;13.77;;
64907;SDS011;64365;-1.756;110.040;2023-02-10T12:28:11;30.38;;;13.70;;
64907;SDS011;64365;-1.756;110.040;2023-02-10T12:30:48;25.38;;;11.73;;
64907;SDS011;64365;-1.756;110.040;2023-02-10T12:33:38;26.40;;;13.57;;
64907;SDS011;64365;-1.756;110.040;2023-02-10T12:36:14;24.92;;;12.45;;
64907;SDS011;64365;-1.756;110.040;2023-02-10T12:38:51;23.38;;;12.45;;
64907;SDS011;64365;-1.756;110.040;2023-02-10T12:41:23;23.58;;;12.27;;
64907;SDS011;64365;-1.756;110.040;2023-02-10T12:44:02;24.00;;;12.48;;
64907;SDS011;64365;-1.756;110.040;2023-02-10T12:46:41;26.83;;;13.43;;
64907;SDS011;64365;-1.756;110.040;2023-02-10T12:49:22;23.38;;;12.80;;
64907;SDS011;64365;-1.756;110.040;2023-02-10T12:52:01;25.00;;;13.02;;
64907;SDS011;64365;-1.756;110.040;2023-02-10T12:54:36;24.42;;;12.10;;
64907;SDS011;64365;-1.756;110.040;2023-02-10T12:57:12;26.20;;;13.38;;
64907;SDS011;64365;-1.756;110.040;2023-02-10T13:02:15;26.67;;;13.95;;
64907;SDS011;64365;-1.756;110.040;2023-02-10T13:04:48;23.98;;;13.95;;
64907;SDS011;64365;-1.756;110.040;2023-02-10T13:07:24;27.15;;;14.52;;
64907;SDS011;64365;-1.756;110.040;2023-02-10T13:09:57;29.73;;;14.85;;
64907;SDS011;64365;-1.756;110.040;2023-02-10T13:12:33;29.98;;;14.77;;
64907;SDS011;64365;-1.756;110.040;2023-02-10T13:15:05;28.40;;;15.60;;
64907;SDS011;64365;-1.756;110.040;2023-02-10T13:17:49;25.55;;;15.48;;
64907;SDS011;64365;-1.756;110.040;2023-02-10T13:20:24;31.13;;;15.10;;
64907;SDS011;64365;-1.756;110.040;2023-02-10T13:22:58;34.28;;;17.98;;
64907;SDS011;64365;-1.756;110.040;2023-02-10T13:25:35;33.58;;;17.42;;
64907;SDS011;64365;-1.756;110.040;2023-02-10T13:28:13;33.83;;;16.90;;
64907;SDS011;64365;-1.756;110.040;2023-02-10T13:30:51;38.30;;;17.40;;
64907;SDS011;64365;-1.756;110.040;2023-02-10T13:33:37;32.50;;;16.17;;
64907;SDS011;64365;-1.756;110.040;2023-02-10T13:36:12;30.17;;;16.85;;
64907;SDS011;64365;-1.756;110.040;2023-02-10T13:38:42;33.35;;;17.90;;
64907;SDS011;64365;-1.756;110.040;2023-02-10T13:41:22;36.75;;;18.73;;
64907;SDS011;64365;-1.756;110.040;2023-02-10T13:44:18;39.08;;;18.70;;
64907;SDS011;64365;-1.756;110.040;2023-02-10T13:46:50;39.50;;;18.50;;
64907;SDS011;64365;-1.756;110.040;2023-02-10T13:49:21;31.02;;;18.58;;
64907;SDS011;64365;-1.756;110.040;2023-02-10T13:51:50;34.20;;;19.30;;
64907;SDS011;64365;-1.756;110.040;2023-02-10T13:54:27;33.80;;;18.08;;
64907;SDS011;64365;-1.756;110.040;2023-02-10T13:56:56;36.28;;;19.23;;
64907;SDS011;64365;-1.756;110.040;2023-02-10T13:59:26;34.40;;;18.02;;
64907;SDS011;64365;-1.756;110.040;2023-02-10T14:02:02;35.75;;;18.77;;
64907;SDS011;64365;-1.756;110.040;2023-02-10T14:04:39;43.20;;;21.73;;
64907;SDS011;64365;-1.756;110.040;2023-02-10T14:07:16;44.08;;;20.73;;
64907;SDS011;64365;-1.756;110.040;2023-02-10T14:10:01;43.75;;;22.10;;
64907;SDS011;64365;-1.756;110.040;2023-02-10T14:12:31;37.10;;;21.05;;
64907;SDS011;64365;-1.756;110.040;2023-02-10T14:15:12;49.80;;;24.88;;